SBMO/MCZ METAR and TAF weather

Enter ICAO airport designator
Station Type Date Time Source
SBMO METAR 2021/05/14 06:00 UTC NOAA

SBMO 140600Z 19003KT 5000 BR SCT011 BKN017 BKN080 23/22 Q1013


Station Type Date Time Source
SBMO Decoded METAR 2021/05/14 06:00 UTC NOAA

Maceio Aeroporto , Brazil (SBMO) 09-31S 035-47W 115M
May 14, 2021 - 02:00 AM EDT / 2021.05.14 0600 UTC
Wind: from the S (190 degrees) at 3 MPH (3 KT):0
Visibility: 3 mile(s):0
Sky conditions: mostly cloudy
Weather: mist
Temperature: 73 F (23 C)
Dew Point: 71 F (22 C)
Relative Humidity: 94%
Pressure (altimeter): 29.91 in. Hg (1013 hPa)
ob: SBMO 140600Z 19003KT 5000 BR SCT011 BKN017 BKN080 23/22 Q1013
cycle: 6

Station Type Date Time Source
SBMO TAF 2021/05/14 06:09 UTC NOAA

TAF TAF SBMO 140300Z 1406/1506 27005KT 8000 BKN015 TN22/1408Z TX27/1416Z PROB40
TEMPO 1406/1412 5000 RA BR BKN010
BECMG 1413/1415 15010KT
BECMG 1423/1501 09005KT SCT015
BECMG 1503/1505 28005KT
RMK PHD

Example: see airport list